createdAt,value
2019-04-30T00:01:25.222Z,18.80
2019-04-30T00:04:19.341Z,18.60
2019-04-30T00:06:52.534Z,18.13
2019-04-30T00:09:26.226Z,17.80
2019-04-30T00:12:01.275Z,14.80
2019-04-30T00:14:37.623Z,18.33
2019-04-30T00:17:06.364Z,16.03
2019-04-30T00:19:37.708Z,22.70
2019-04-30T00:22:11.396Z,17.93
2019-04-30T00:24:49.671Z,21.73
2019-04-30T00:27:21.081Z,19.93
2019-04-30T00:29:52.922Z,28.77
2019-04-30T00:32:25.768Z,21.93
2019-04-30T00:34:57.706Z,23.00
2019-04-30T00:37:30.149Z,31.40
2019-04-30T00:40:01.356Z,18.43
2019-04-30T00:42:35.764Z,25.70
2019-04-30T00:45:11.072Z,20.20
2019-04-30T00:47:47.922Z,19.13
2019-04-30T00:50:20.244Z,22.50
2019-04-30T00:52:51.725Z,17.10
2019-04-30T00:55:22.815Z,20.40
2019-04-30T00:57:55.850Z,22.53
2019-04-30T01:00:29.615Z,19.13
2019-04-30T01:03:11.716Z,22.83
2019-04-30T01:05:46.448Z,15.90
2019-04-30T01:08:21.136Z,18.80
2019-04-30T01:10:51.303Z,17.30
2019-04-30T01:13:22.743Z,13.73
2019-04-30T01:15:53.913Z,20.20
2019-04-30T01:18:28.534Z,15.60
2019-04-30T01:21:02.992Z,16.40
2019-04-30T01:23:31.937Z,29.00
2019-04-30T01:26:04.776Z,14.97
2019-04-30T01:28:36.296Z,13.17
2019-04-30T01:31:10.493Z,18.70
2019-04-30T01:33:41.747Z,18.73
2019-04-30T01:36:13.482Z,13.80
2019-04-30T01:38:51.029Z,18.77
2019-04-30T01:41:27.364Z,16.87
2019-04-30T01:43:58.482Z,15.83
2019-04-30T01:46:31.262Z,14.43
2019-04-30T01:49:02.444Z,16.00
2019-04-30T01:51:35.435Z,13.17
2019-04-30T01:54:06.956Z,18.63
2019-04-30T01:56:51.975Z,15.90
2019-04-30T01:59:29.029Z,13.40
2019-04-30T02:02:01.718Z,16.03
2019-04-30T02:04:33.173Z,17.63
2019-04-30T02:07:05.757Z,12.93
2019-04-30T02:09:38.814Z,14.63
2019-04-30T02:12:10.022Z,21.30
2019-04-30T02:14:42.253Z,18.20
2019-04-30T02:17:14.846Z,16.10
2019-04-30T02:19:55.968Z,16.90
2019-04-30T02:22:18.967Z,16.43
2019-04-30T02:24:50.231Z,10.83
2019-04-30T02:27:21.612Z,17.13
2019-04-30T02:29:54.777Z,13.57
2019-04-30T02:32:25.929Z,22.10
2019-04-30T02:35:12.524Z,21.10
2019-04-30T02:38:02.909Z,12.60
2019-04-30T02:40:39.290Z,11.23
2019-04-30T02:43:12.178Z,15.27
2019-04-30T02:45:45.667Z,13.77
2019-04-30T02:48:20.297Z,15.97
2019-04-30T02:50:54.424Z,15.57
2019-04-30T02:54:23.838Z,18.80
2019-04-30T02:57:14.889Z,14.30
2019-04-30T03:00:21.090Z,14.33
2019-04-30T03:02:53.823Z,15.30
2019-04-30T03:05:25.066Z,14.27
2019-04-30T03:08:00.331Z,11.90
2019-04-30T03:10:31.899Z,14.40
2019-04-30T03:13:03.027Z,12.50
2019-04-30T03:15:39.244Z,12.80
2019-04-30T03:18:22.778Z,17.07
2019-04-30T03:20:59.979Z,16.97
2019-04-30T03:23:34.024Z,18.40
2019-04-30T03:26:05.372Z,22.87
2019-04-30T03:28:36.501Z,25.93
2019-04-30T03:31:12.413Z,22.90
2019-04-30T03:33:44.049Z,20.70
2019-04-30T03:36:15.623Z,23.57
2019-04-30T03:38:46.718Z,24.27
2019-04-30T03:41:20.013Z,22.13
2019-04-30T03:43:51.278Z,26.83
2019-04-30T03:46:22.848Z,17.17
2019-04-30T03:48:53.907Z,24.83
2019-04-30T03:51:25.327Z,22.57
2019-04-30T03:53:58.914Z,20.43
2019-04-30T03:56:30.010Z,23.43
2019-04-30T03:59:01.705Z,21.47
2019-04-30T04:01:54.807Z,22.33
2019-04-30T04:04:39.753Z,22.23
2019-04-30T04:07:31.348Z,24.60
2019-04-30T04:10:11.964Z,22.47
2019-04-30T04:12:43.775Z,25.80
2019-04-30T04:15:16.422Z,27.20
2019-04-30T04:17:50.468Z,29.50
2019-04-30T04:20:23.156Z,25.63
2019-04-30T04:22:54.609Z,26.27
2019-04-30T04:25:29.668Z,23.60
2019-04-30T04:28:01.858Z,31.43
2019-04-30T04:30:34.091Z,28.63
2019-04-30T04:33:19.752Z,29.03
2019-04-30T04:35:50.447Z,30.63
2019-04-30T04:38:21.553Z,28.37
2019-04-30T04:40:52.701Z,25.20
2019-04-30T04:43:25.528Z,23.93
2019-04-30T04:45:59.301Z,25.93
2019-04-30T04:48:30.883Z,22.40
2019-04-30T04:51:03.123Z,22.60
2019-04-30T04:53:34.508Z,21.83
2019-04-30T04:56:07.054Z,23.03
2019-04-30T04:58:40.138Z,20.33
2019-04-30T05:01:12.212Z,18.90
2019-04-30T05:03:44.444Z,18.87
2019-04-30T05:06:15.533Z,20.70
2019-04-30T05:08:49.227Z,20.97
2019-04-30T05:11:20.900Z,19.60
2019-04-30T05:13:51.975Z,20.63
2019-04-30T05:16:23.450Z,18.93
2019-04-30T05:18:54.584Z,22.77
2019-04-30T05:21:25.590Z,21.73
2019-04-30T05:23:56.785Z,22.27
2019-04-30T05:26:29.619Z,21.90
2019-04-30T05:29:03.803Z,20.07
2019-04-30T05:31:38.494Z,25.80
2019-04-30T05:34:10.336Z,22.90
2019-04-30T05:36:41.696Z,19.60
2019-04-30T05:39:12.826Z,26.93
2019-04-30T05:41:43.812Z,25.70
2019-04-30T05:44:15.123Z,23.93
2019-04-30T05:46:49.365Z,26.43
2019-04-30T05:49:22.432Z,33.03
2019-04-30T05:51:55.963Z,27.70
2019-04-30T05:54:26.525Z,25.33
2019-04-30T05:56:59.374Z,28.10
2019-04-30T05:59:30.849Z,34.93
2019-04-30T06:02:02.053Z,32.87
2019-04-30T06:04:35.657Z,31.40
2019-04-30T06:07:08.695Z,35.70
2019-04-30T06:12:59.857Z,36.97
2019-04-30T06:15:42.592Z,38.93
2019-04-30T06:18:18.588Z,39.93
2019-04-30T06:20:51.213Z,40.30
2019-04-30T06:23:22.422Z,38.40
2019-04-30T06:25:59.931Z,42.67
2019-04-30T06:28:29.224Z,39.30
2019-04-30T06:31:00.862Z,37.40
2019-04-30T06:33:32.885Z,41.50
2019-04-30T06:36:04.746Z,40.00
2019-04-30T06:38:35.990Z,34.13
2019-04-30T06:41:08.713Z,36.07
2019-04-30T06:43:41.973Z,33.60
2019-04-30T06:46:13.618Z,33.10
2019-04-30T06:48:48.657Z,34.93
2019-04-30T06:51:19.001Z,33.23
2019-04-30T06:53:51.576Z,34.07
2019-04-30T06:56:23.983Z,35.20
2019-04-30T06:58:56.742Z,37.03
2019-04-30T07:01:30.040Z,33.53
2019-04-30T07:04:01.283Z,35.07
2019-04-30T07:06:37.106Z,35.20
2019-04-30T07:09:49.862Z,34.83
2019-04-30T07:12:27.322Z,37.13
2019-04-30T07:14:54.072Z,37.60
2019-04-30T07:17:29.087Z,36.10
2019-04-30T07:19:59.854Z,37.00
2019-04-30T07:22:40.166Z,34.93
2019-04-30T07:25:06.368Z,31.33
2019-04-30T07:27:39.936Z,37.27
2019-04-30T07:30:10.532Z,37.83
2019-04-30T07:32:43.568Z,31.40
2019-04-30T07:35:14.860Z,30.90
2019-04-30T07:37:45.961Z,40.33
2019-04-30T07:40:19.195Z,39.97
2019-04-30T07:42:50.744Z,39.47
2019-04-30T07:45:25.691Z,36.50
2019-04-30T07:47:59.416Z,38.13
2019-04-30T07:50:37.056Z,41.73
2019-04-30T07:53:11.325Z,41.63
2019-04-30T07:55:43.540Z,37.93
2019-04-30T07:58:16.629Z,37.50
2019-04-30T08:00:49.719Z,36.40
2019-04-30T08:03:33.730Z,37.70
2019-04-30T08:06:09.803Z,38.33
2019-04-30T08:08:41.012Z,37.50
2019-04-30T08:11:23.052Z,35.57
2019-04-30T08:13:49.156Z,41.50
2019-04-30T08:16:21.168Z,39.00
2019-04-30T08:18:53.446Z,53.03
2019-04-30T08:21:24.507Z,39.30
2019-04-30T08:23:55.968Z,37.97
2019-04-30T08:26:28.726Z,34.40
2019-04-30T08:28:59.949Z,35.00
2019-04-30T08:31:31.467Z,36.93
2019-04-30T08:34:02.862Z,36.17
2019-04-30T08:36:34.041Z,32.80
2019-04-30T08:39:09.667Z,36.03
2019-04-30T08:41:41.235Z,31.83
2019-04-30T08:44:12.741Z,35.20
2019-04-30T08:46:43.940Z,39.43
2019-04-30T08:49:15.707Z,33.63
2019-04-30T08:51:49.087Z,38.03
2019-04-30T08:54:20.531Z,31.70
2019-04-30T08:56:51.907Z,35.20
2019-04-30T08:59:22.949Z,31.90
2019-04-30T09:01:55.224Z,29.00
2019-04-30T09:04:30.660Z,33.20
2019-04-30T09:07:03.959Z,30.57
2019-04-30T09:09:35.114Z,35.83
2019-04-30T09:12:09.833Z,33.50
2019-04-30T09:14:41.917Z,33.07
2019-04-30T09:17:13.348Z,36.17
2019-04-30T09:19:45.640Z,28.67
2019-04-30T09:22:16.945Z,33.00
2019-04-30T09:24:49.760Z,36.77
2019-04-30T09:27:21.025Z,32.90
2019-04-30T09:29:52.206Z,33.23
2019-04-30T09:32:23.630Z,24.47
2019-04-30T09:34:58.714Z,23.20
2019-04-30T09:37:31.814Z,24.23
2019-04-30T09:40:15.307Z,32.23
2019-04-30T09:42:39.090Z,33.20
2019-04-30T09:45:10.513Z,29.00
2019-04-30T09:47:42.167Z,30.90
2019-04-30T09:50:15.919Z,32.93
2019-04-30T09:52:49.676Z,34.40
2019-04-30T09:55:22.683Z,28.20
2019-04-30T09:57:54.264Z,28.30
2019-04-30T10:00:25.737Z,26.63
2019-04-30T10:02:59.430Z,23.83
2019-04-30T10:05:29.844Z,33.47
2019-04-30T10:08:01.433Z,30.47
2019-04-30T10:10:39.180Z,32.60
2019-04-30T10:13:10.314Z,29.07
2019-04-30T10:16:06.346Z,28.97
2019-04-30T10:18:38.098Z,35.60
2019-04-30T10:21:10.514Z,29.87
2019-04-30T10:23:42.043Z,36.70
2019-04-30T10:26:14.321Z,35.20
2019-04-30T10:28:48.677Z,33.83
2019-04-30T10:31:20.949Z,25.67
2019-04-30T10:33:52.256Z,33.37
2019-04-30T10:36:24.398Z,27.87
2019-04-30T10:38:55.572Z,27.33
2019-04-30T10:41:34.497Z,29.83
2019-04-30T10:44:08.876Z,33.33
2019-04-30T10:46:40.434Z,30.80
2019-04-30T10:49:11.947Z,30.50
2019-04-30T10:51:43.492Z,27.67
2019-04-30T10:54:23.968Z,32.50
2019-04-30T10:56:49.039Z,28.83
2019-04-30T10:59:20.423Z,28.47
2019-04-30T11:01:54.351Z,28.63
2019-04-30T11:04:25.807Z,34.40
2019-04-30T11:07:00.185Z,35.63
2019-04-30T11:09:32.941Z,28.33
2019-04-30T11:12:04.738Z,24.00
2019-04-30T11:14:35.864Z,30.10
2019-04-30T11:17:09.914Z,27.10
2019-04-30T11:19:41.824Z,32.80
2019-04-30T11:22:13.264Z,32.97
2019-04-30T11:24:58.188Z,28.93
2019-04-30T11:27:20.657Z,27.30
2019-04-30T11:29:52.973Z,27.13
2019-04-30T11:32:25.293Z,28.27
2019-04-30T11:34:56.920Z,31.23
2019-04-30T11:37:29.526Z,27.57
2019-04-30T11:40:00.573Z,29.70
2019-04-30T11:42:32.394Z,27.60
2019-04-30T11:45:05.215Z,29.03
2019-04-30T11:47:37.506Z,27.30
2019-04-30T11:50:12.725Z,30.70
2019-04-30T11:52:45.012Z,27.30
2019-04-30T11:55:19.351Z,27.17
2019-04-30T11:57:52.939Z,29.20
2019-04-30T12:00:30.050Z,28.37
2019-04-30T12:03:01.179Z,31.00
2019-04-30T12:05:32.296Z,30.20
2019-04-30T12:08:14.395Z,30.40
2019-04-30T12:10:50.350Z,27.40
2019-04-30T12:13:29.485Z,28.20
2019-04-30T12:16:01.238Z,34.50
2019-04-30T12:18:34.282Z,35.87
2019-04-30T12:21:06.518Z,34.60
2019-04-30T12:23:37.651Z,29.40
2019-04-30T12:26:09.825Z,28.93
2019-04-30T12:28:42.430Z,32.67
2019-04-30T12:31:13.895Z,33.83
2019-04-30T12:33:46.846Z,31.93
2019-04-30T12:36:19.533Z,31.43
2019-04-30T12:38:52.107Z,32.77
2019-04-30T12:41:26.425Z,35.23
2019-04-30T12:43:57.573Z,48.83
2019-04-30T12:46:29.746Z,38.83
2019-04-30T12:49:10.399Z,38.13
2019-04-30T12:51:58.740Z,34.03
2019-04-30T12:54:36.993Z,32.50
2019-04-30T12:57:20.044Z,31.27
2019-04-30T12:59:52.251Z,35.80
2019-04-30T13:02:23.774Z,35.80
2019-04-30T13:05:00.234Z,36.70
2019-04-30T13:07:31.043Z,35.27
2019-04-30T13:10:07.259Z,41.93
2019-04-30T13:12:39.439Z,39.90
2019-04-30T13:15:12.484Z,40.07
2019-04-30T13:17:43.686Z,41.30
2019-04-30T13:20:21.140Z,39.67
2019-04-30T13:22:51.919Z,42.47
2019-04-30T13:25:30.875Z,37.27
2019-04-30T13:28:02.396Z,38.13
2019-04-30T13:30:33.750Z,38.50
2019-04-30T13:33:10.318Z,36.40
2019-04-30T13:35:41.703Z,35.73
2019-04-30T13:38:21.210Z,38.93
2019-04-30T13:41:18.807Z,41.50
2019-04-30T13:44:09.490Z,42.83
2019-04-30T13:46:40.606Z,39.03
2019-04-30T13:49:12.980Z,36.23
2019-04-30T13:51:44.065Z,37.20
2019-04-30T13:54:15.168Z,39.57
2019-04-30T13:56:46.628Z,36.73
2019-04-30T13:59:18.077Z,43.93
2019-04-30T14:01:50.481Z,37.33
2019-04-30T14:04:46.733Z,41.17
2019-04-30T14:07:50.362Z,39.30
2019-04-30T14:10:21.408Z,37.13
2019-04-30T14:12:56.717Z,35.43
2019-04-30T14:15:29.207Z,34.00
2019-04-30T14:18:02.118Z,34.93
2019-04-30T14:20:33.214Z,37.57
2019-04-30T14:23:04.542Z,33.53
2019-04-30T14:25:36.035Z,35.17
2019-04-30T14:28:09.424Z,47.20
2019-04-30T14:30:42.265Z,35.20
2019-04-30T14:33:23.381Z,38.17
2019-04-30T14:35:46.187Z,42.73
2019-04-30T14:38:19.013Z,34.77
2019-04-30T14:40:51.163Z,31.80
2019-04-30T14:43:51.293Z,37.93
2019-04-30T14:46:42.942Z,35.00
2019-04-30T14:49:43.150Z,36.43
2019-04-30T14:52:15.249Z,34.87
2019-04-30T14:55:04.605Z,38.50
2019-04-30T14:57:51.324Z,34.90
2019-04-30T15:00:46.498Z,35.13
2019-04-30T15:03:20.309Z,35.77
2019-04-30T15:05:53.707Z,33.00
2019-04-30T15:08:24.886Z,33.97
2019-04-30T15:10:55.994Z,32.80
2019-04-30T15:13:29.368Z,31.60
2019-04-30T15:16:01.721Z,31.10
2019-04-30T15:18:32.925Z,31.57
2019-04-30T15:21:03.954Z,28.97
2019-04-30T15:24:06.152Z,31.37
2019-04-30T15:26:40.684Z,29.90
2019-04-30T15:29:13.378Z,29.07
2019-04-30T15:31:43.052Z,23.47
2019-04-30T15:34:15.343Z,27.83
2019-04-30T15:36:46.582Z,23.07
2019-04-30T15:39:30.622Z,19.67
2019-04-30T15:42:00.643Z,22.00
2019-04-30T15:44:40.231Z,19.87
2019-04-30T15:47:09.224Z,20.33
2019-04-30T15:49:40.813Z,26.03
2019-04-30T15:52:11.870Z,17.80
2019-04-30T15:54:49.077Z,20.63
2019-04-30T15:57:20.729Z,23.30
2019-04-30T15:59:51.800Z,13.83
2019-04-30T16:02:53.679Z,22.53
2019-04-30T16:05:32.227Z,15.23
2019-04-30T16:08:21.401Z,21.23
2019-04-30T16:11:00.433Z,17.53
2019-04-30T16:13:36.101Z,18.20
2019-04-30T16:16:09.079Z,15.70
2019-04-30T16:18:50.397Z,17.87
2019-04-30T16:21:23.327Z,18.73
2019-04-30T16:23:56.207Z,14.80
2019-04-30T16:26:29.103Z,30.20
2019-04-30T16:29:01.773Z,14.60
2019-04-30T16:31:33.107Z,17.13
2019-04-30T16:34:05.745Z,14.47
2019-04-30T16:36:39.027Z,16.53
2019-04-30T16:39:11.435Z,12.20
2019-04-30T16:41:42.736Z,14.13
2019-04-30T16:44:14.163Z,13.83
2019-04-30T16:46:46.244Z,13.10
2019-04-30T16:49:18.524Z,20.17
2019-04-30T16:51:50.163Z,19.53
2019-04-30T16:54:25.222Z,14.93
2019-04-30T16:57:04.048Z,16.80
2019-04-30T16:59:41.300Z,17.73
2019-04-30T17:02:13.626Z,14.00
2019-04-30T17:05:19.775Z,18.63
2019-04-30T17:08:29.057Z,16.80
2019-04-30T17:11:25.081Z,15.37
2019-04-30T17:14:00.738Z,18.07
2019-04-30T17:16:32.391Z,18.33
2019-04-30T17:19:05.525Z,17.37
2019-04-30T17:21:37.046Z,17.23
2019-04-30T17:24:08.813Z,22.27
2019-04-30T17:26:40.974Z,21.90
2019-04-30T17:29:12.109Z,18.53
2019-04-30T17:31:43.794Z,42.27
2019-04-30T17:34:16.230Z,16.93
2019-04-30T17:36:49.591Z,23.03
2019-04-30T17:39:22.655Z,17.07
2019-04-30T17:41:55.364Z,20.90
2019-04-30T17:44:28.908Z,20.70
2019-04-30T17:47:02.091Z,21.10
2019-04-30T17:49:34.717Z,20.10
2019-04-30T17:52:08.860Z,22.50
2019-04-30T17:54:40.162Z,22.40
2019-04-30T17:57:12.270Z,21.90
2019-04-30T17:59:43.593Z,20.33
2019-04-30T18:02:16.692Z,25.40
2019-04-30T18:05:44.495Z,21.30
2019-04-30T18:08:17.740Z,22.90
2019-04-30T18:10:48.868Z,20.20
2019-04-30T18:13:22.031Z,23.53
2019-04-30T18:15:54.037Z,20.80
2019-04-30T18:18:34.485Z,21.27
2019-04-30T18:21:23.655Z,18.03
2019-04-30T18:24:13.109Z,17.80
2019-04-30T18:26:51.034Z,23.57
2019-04-30T18:29:24.288Z,24.97
2019-04-30T18:31:55.989Z,25.17
2019-04-30T18:34:29.216Z,21.70
2019-04-30T18:37:00.787Z,21.57
2019-04-30T18:39:31.988Z,19.23
2019-04-30T18:42:03.276Z,20.40
2019-04-30T18:44:35.060Z,25.53
2019-04-30T18:47:08.523Z,27.53
2019-04-30T18:49:40.454Z,18.70
2019-04-30T18:52:12.925Z,21.70
2019-04-30T18:54:45.204Z,20.13
2019-04-30T18:57:16.881Z,21.87
2019-04-30T18:59:48.395Z,19.83
2019-04-30T19:02:21.363Z,24.00
2019-04-30T19:04:52.886Z,21.03
2019-04-30T19:07:44.481Z,18.40
2019-04-30T19:10:23.744Z,19.40
2019-04-30T19:13:15.636Z,24.67
2019-04-30T19:16:22.081Z,21.87
2019-04-30T19:19:00.922Z,24.20
2019-04-30T19:21:33.051Z,19.83
2019-04-30T19:24:04.529Z,24.80
2019-04-30T19:26:36.131Z,19.23
2019-04-30T19:29:07.878Z,19.60
2019-04-30T19:31:41.861Z,17.77
2019-04-30T19:34:13.288Z,19.70
2019-04-30T19:36:44.468Z,21.97
2019-04-30T19:39:19.391Z,21.30
2019-04-30T19:41:51.899Z,22.50
2019-04-30T19:44:23.208Z,18.20
2019-04-30T19:46:59.925Z,25.63
2019-04-30T19:49:31.220Z,20.97
2019-04-30T19:52:08.545Z,18.53
2019-04-30T19:54:39.179Z,18.20
2019-04-30T19:57:10.376Z,16.10
2019-04-30T19:59:43.722Z,21.43
2019-04-30T20:02:16.238Z,21.13
2019-04-30T20:04:48.369Z,19.23
2019-04-30T20:07:19.773Z,18.20
2019-04-30T20:10:00.626Z,25.43
2019-04-30T20:12:24.252Z,18.03
2019-04-30T20:14:56.703Z,18.50
2019-04-30T20:17:29.556Z,21.60
2019-04-30T20:20:01.077Z,21.03
2019-04-30T20:22:32.162Z,17.10
2019-04-30T20:25:03.381Z,22.77
2019-04-30T20:27:36.479Z,18.37
2019-04-30T20:30:09.627Z,23.67
2019-04-30T20:32:41.012Z,18.87
2019-04-30T20:35:12.838Z,18.77
2019-04-30T20:38:01.633Z,19.00
2019-04-30T20:40:43.348Z,21.23
2019-04-30T20:43:08.568Z,21.97
2019-04-30T20:45:40.250Z,16.53
2019-04-30T20:48:11.500Z,17.40
2019-04-30T20:50:43.817Z,20.20
2019-04-30T20:53:14.961Z,22.10
2019-04-30T20:55:46.097Z,31.77
2019-04-30T20:58:18.335Z,20.60
2019-04-30T21:01:00.633Z,22.40
2019-04-30T21:03:25.445Z,21.67
2019-04-30T21:06:00.363Z,19.57
2019-04-30T21:08:30.274Z,26.40
2019-04-30T21:11:01.579Z,28.53
2019-04-30T21:13:32.806Z,26.00
2019-04-30T21:16:04.451Z,28.20
2019-04-30T21:18:36.573Z,23.33
2019-04-30T21:21:07.982Z,27.30
2019-04-30T21:23:39.441Z,24.80
2019-04-30T21:26:12.364Z,25.20
2019-04-30T21:28:43.889Z,26.10
2019-04-30T21:31:49.247Z,31.37
2019-04-30T21:34:48.675Z,23.57
2019-04-30T21:37:21.653Z,24.70
2019-04-30T21:39:53.520Z,26.03
2019-04-30T21:42:26.889Z,26.40
2019-04-30T21:45:00.439Z,24.40
2019-04-30T21:47:31.543Z,25.23
2019-04-30T21:50:04.015Z,24.23
2019-04-30T21:52:35.085Z,25.07
2019-04-30T21:55:06.642Z,23.17
2019-04-30T21:57:39.198Z,32.40
2019-04-30T22:00:16.155Z,31.30
2019-04-30T22:02:50.091Z,27.87
2019-04-30T22:05:21.227Z,30.13
2019-04-30T22:07:53.640Z,31.03
2019-04-30T22:10:24.711Z,29.93
2019-04-30T22:12:58.620Z,29.70
2019-04-30T22:15:30.434Z,31.17
2019-04-30T22:18:01.613Z,35.50
2019-04-30T22:20:35.489Z,31.93
2019-04-30T22:23:08.682Z,31.27
2019-04-30T22:25:39.839Z,33.97
2019-04-30T22:28:12.832Z,36.40
2019-04-30T22:30:45.603Z,34.80
2019-04-30T22:33:17.077Z,39.33
2019-04-30T22:35:55.823Z,35.90
2019-04-30T22:38:30.854Z,35.83
2019-04-30T22:41:02.368Z,40.27
2019-04-30T22:43:33.518Z,40.43
2019-04-30T22:46:12.584Z,38.33
2019-04-30T22:48:45.022Z,50.27
2019-04-30T22:51:17.507Z,48.03
2019-04-30T22:53:48.857Z,51.20
2019-04-30T22:56:20.308Z,44.00
2019-04-30T22:58:51.508Z,47.73
2019-04-30T23:01:31.611Z,53.03
2019-04-30T23:04:06.223Z,53.07
2019-04-30T23:06:37.579Z,50.60
2019-04-30T23:09:12.299Z,54.63
2019-04-30T23:11:44.906Z,51.83
2019-04-30T23:14:16.360Z,51.93
2019-04-30T23:16:48.314Z,49.10
2019-04-30T23:19:20.508Z,59.13
2019-04-30T23:21:51.938Z,60.20
2019-04-30T23:24:24.547Z,51.70
2019-04-30T23:26:56.181Z,57.30
2019-04-30T23:29:27.228Z,58.07
2019-04-30T23:31:58.371Z,55.93
2019-04-30T23:34:29.720Z,65.70
2019-04-30T23:37:00.976Z,60.50
2019-04-30T23:39:33.972Z,59.10
2019-04-30T23:42:05.207Z,57.57
2019-04-30T23:44:40.351Z,62.90
2019-04-30T23:47:11.498Z,58.87
2019-04-30T23:49:43.317Z,58.20
2019-04-30T23:52:16.143Z,58.63
2019-04-30T23:54:50.471Z,64.80
2019-04-30T23:57:21.950Z,62.10
2019-04-30T23:59:53.067Z,62.13
